Time;durP1;ratioP1;P1;durP2;ratioP2;P2;SDS_P1;SDS_P2;PMS_P1;PMS_P2;Temp;Humidity;BMP_temperature;BMP_pressure;BME280_temperature;BME280_humidity;BME280_pressure;Samples;Min_cycle;Max_cycle;Signal;HPM_P1;HPM_P2
2022/05/18 00:00:27;;;;;;;;;;;;;;;3.90;64.16;102519.61;1744271;82;20479;-88
2022/05/18 00:02:59;;;;;;;;;;;;;;;3.85;64.24;102517.05;1736568;81;20203;-88
2022/05/18 00:05:27;;;;;;;;;;;;;;;3.86;64.36;102521.45;1723108;81;20362;-89
2022/05/18 00:07:54;;;;;;;;;;;;;;;3.85;64.44;102532.69;1755239;81;20334;-89
2022/05/18 00:10:20;;;;;;;;;;;;;;;3.85;64.56;102524.87;1755292;81;20597;-88
2022/05/18 00:12:48;;;;;;;;;;;;;;;3.84;64.60;102531.75;1754789;80;20375;-89
2022/05/18 00:15:28;;;;;;;;;;;;;;;3.85;64.69;102531.37;1755389;80;20225;-89
2022/05/18 00:17:49;;;;;;;;;;;;;;;3.84;64.77;102533.45;1710430;82;20207;-88
2022/05/18 00:20:16;;;;;;;;;;;;;;;3.85;64.80;102536.59;1741713;80;20220;-88
2022/05/18 00:22:54;;;;;;;;;;;;;;;3.85;64.92;102536.59;1749300;80;20320;-88
2022/05/18 00:25:23;;;;;;;;;;;;;;;3.84;64.95;102539.97;1742870;80;21248;-87
2022/05/18 00:27:50;;;;;;;;;;;;;;;3.83;64.97;102539.44;1717910;82;20263;-88
2022/05/18 00:30:17;;;;;;;;;;;;;;;3.80;64.97;102545.31;1716600;82;21723;-88
2022/05/18 00:32:44;;;;;;;;;;;;;;;3.78;65.08;102546.89;1687142;83;21366;-88
2022/05/18 00:35:11;;;;;;;;;;;;;;;3.74;65.12;102541.33;1699560;81;20273;-88
2022/05/18 00:37:38;;;;;;;;;;;;;;;3.74;65.16;102542.22;1707921;82;20443;-89
2022/05/18 00:40:06;;;;;;;;;;;;;;;3.71;65.31;102544.56;1708263;84;20256;-88
2022/05/18 00:42:32;;;;;;;;;;;;;;;3.70;65.46;102546.67;1707779;84;21808;-88
2022/05/18 00:44:59;;;;;;;;;;;;;;;3.70;65.46;102551.48;1708027;84;21344;-88
2022/05/18 00:47:25;;;;;;;;;;;;;;;3.70;65.53;102547.57;1708438;83;20223;-88
2022/05/18 00:49:55;;;;;;;;;;;;;;;3.71;65.51;102553.68;1708609;84;20997;-88
2022/05/18 00:52:25;;;;;;;;;;;;;;;3.69;65.51;102557.45;1695739;83;20202;-87
2022/05/18 00:54:51;;;;;;;;;;;;;;;3.65;65.54;102560.59;1700001;84;21761;-88
2022/05/18 00:57:22;;;;;;;;;;;;;;;3.63;65.51;102562.58;1677886;84;20198;-89
2022/05/18 00:59:51;;;;;;;;;;;;;;;3.60;65.57;102563.61;1694984;83;20519;-88
2022/05/18 01:02:18;;;;;;;;;;;;;;;3.57;65.62;102574.70;1692050;83;20452;-88
2022/05/18 01:04:44;;;;;;;;;;;;;;;3.54;65.66;102572.23;1692423;83;20228;-88
2022/05/18 01:07:17;;;;;;;;;;;;;;;3.53;65.71;102572.63;1680738;83;21758;-88
2022/05/18 01:09:45;;;;;;;;;;;;;;;3.52;65.75;102572.50;1706249;83;20208;-87
2022/05/18 01:12:13;;;;;;;;;;;;;;;3.48;65.83;102577.44;1710212;83;20232;-87
2022/05/18 01:14:54;;;;;;;;;;;;;;;3.45;65.90;102585.38;1707840;82;20388;-88
2022/05/18 01:17:25;;;;;;;;;;;;;;;3.41;66.03;102577.70;1702983;83;20241;-88
2022/05/18 01:19:53;;;;;;;;;;;;;;;3.39;66.09;102582.28;1707698;84;21927;-88
2022/05/18 01:22:50;;;;;;;;;;;;;;;3.37;66.19;102579.94;1707928;84;20203;-88
2022/05/18 01:25:41;;;;;;;;;;;;;;;3.33;66.32;102582.67;1707717;84;20239;-89
2022/05/18 01:28:09;;;;;;;;;;;;;;;3.30;66.42;102585.95;1707445;83;20375;-89
2022/05/18 01:30:38;;;;;;;;;;;;;;;3.29;66.49;102589.31;1707617;83;20204;-89
2022/05/18 01:33:06;;;;;;;;;;;;;;;3.31;66.63;102592.05;1708001;82;22177;-88
2022/05/18 01:35:33;;;;;;;;;;;;;;;3.30;66.71;102592.45;1703013;82;21257;-89
2022/05/18 01:37:59;;;;;;;;;;;;;;;3.29;66.77;102591.91;1693337;83;20244;-89
2022/05/18 01:41:03;;;;;;;;;;;;;;;3.30;66.82;102587.61;1689426;83;20332;-88
2022/05/18 01:43:33;;;;;;;;;;;;;;;3.33;66.86;102589.59;1703129;83;20233;-88
2022/05/18 01:46:01;;;;;;;;;;;;;;;3.38;66.95;102594.76;1686065;84;22892;-88
2022/05/18 01:48:31;;;;;;;;;;;;;;;3.40;66.91;102598.03;1682738;83;20202;-89
2022/05/18 01:50:59;;;;;;;;;;;;;;;3.43;66.85;102599.56;1706592;83;20778;-89
2022/05/18 01:53:26;;;;;;;;;;;;;;;3.43;66.83;102599.56;1722170;81;21525;-89
2022/05/18 01:55:55;;;;;;;;;;;;;;;3.44;66.84;102595.30;1703895;83;20193;-88
2022/05/18 01:58:24;;;;;;;;;;;;;;;3.44;66.82;102596.59;1707734;83;20320;-88
2022/05/18 02:00:50;;;;;;;;;;;;;;;3.44;66.82;102602.70;1705813;83;20512;-89
2022/05/18 02:03:17;;;;;;;;;;;;;;;3.45;66.86;102602.30;1672374;84;20243;-88
2022/05/18 02:05:43;;;;;;;;;;;;;;;3.45;66.82;102608.45;1703871;83;20355;-89
2022/05/18 02:08:10;;;;;;;;;;;;;;;3.45;66.80;102608.81;1696898;83;20515;-87
2022/05/18 02:10:37;;;;;;;;;;;;;;;3.46;66.78;102613.25;1703157;83;21729;-88
2022/05/18 02:13:03;;;;;;;;;;;;;;;3.47;66.83;102609.84;1699592;84;20205;-88
2022/05/18 02:15:30;;;;;;;;;;;;;;;3.51;66.88;102608.05;1699738;83;20674;-88
2022/05/18 02:17:56;;;;;;;;;;;;;;;3.53;66.84;102606.48;1699671;83;20359;-89
2022/05/18 02:20:25;;;;;;;;;;;;;;;3.55;66.81;102614.02;1698877;83;20193;-89
2022/05/18 02:22:52;;;;;;;;;;;;;;;3.54;66.76;102608.68;1687815;83;21762;-88
2022/05/18 02:25:19;;;;;;;;;;;;;;;3.55;66.78;102607.88;1693712;83;20214;-86
2022/05/18 02:27:46;;;;;;;;;;;;;;;3.57;66.82;102602.44;1697761;84;20235;-87
2022/05/18 02:30:13;;;;;;;;;;;;;;;3.64;66.88;102614.79;1703297;83;20960;-87
2022/05/18 02:32:42;;;;;;;;;;;;;;;3.69;66.85;102610.84;1700345;84;20256;-88
2022/05/18 02:35:09;;;;;;;;;;;;;;;3.75;66.86;102610.44;1649924;83;22145;-88
2022/05/18 02:37:36;;;;;;;;;;;;;;;3.78;66.75;102614.61;1701577;83;20298;-88
2022/05/18 02:40:03;;;;;;;;;;;;;;;3.79;66.61;102613.84;1708800;82;20180;-88
2022/05/18 02:42:29;;;;;;;;;;;;;;;3.76;66.56;102617.48;1711032;82;20361;-89
2022/05/18 02:44:56;;;;;;;;;;;;;;;3.77;66.55;102616.69;1709685;83;20207;-90
2022/05/18 02:47:23;;;;;;;;;;;;;;;3.76;66.58;102620.49;1709332;84;21739;-88
2022/05/18 02:49:53;;;;;;;;;;;;;;;3.78;66.67;102617.62;1709783;83;20977;-89
2022/05/18 02:52:19;;;;;;;;;;;;;;;3.83;66.75;102624.09;1707479;83;20193;-88
2022/05/18 02:57:31;;;;;;;;;;;;;;;3.94;66.68;102624.61;1702822;83;20191;-89
2022/05/18 02:59:59;;;;;;;;;;;;;;;3.99;66.67;102627.17;1665210;84;20264;-89
2022/05/18 03:02:27;;;;;;;;;;;;;;;4.08;66.72;102630.94;1676452;84;20187;-90
2022/05/18 03:04:54;;;;;;;;;;;;;;;4.17;66.68;102629.09;1697590;84;20198;-89
2022/05/18 03:07:20;;;;;;;;;;;;;;;4.26;66.60;102632.80;1707895;84;20937;-89
2022/05/18 03:09:47;;;;;;;;;;;;;;;4.34;66.53;102633.45;1695167;83;20239;-89
2022/05/18 03:12:13;;;;;;;;;;;;;;;4.42;66.43;102638.47;1700418;82;21920;-89
2022/05/18 03:14:40;;;;;;;;;;;;;;;4.52;66.40;102635.30;1693305;83;20227;-89
2022/05/18 03:17:06;;;;;;;;;;;;;;;4.60;66.27;102631.62;1707872;83;20327;-89
2022/05/18 03:19:34;;;;;;;;;;;;;;;4.74;66.28;102635.31;1704956;82;20197;-89
2022/05/18 03:24:49;;;;;;;;;;;;;;;4.99;66.08;102633.84;1699495;83;22801;-87
2022/05/18 03:27:15;;;;;;;;;;;;;;;5.18;65.94;102628.72;1696626;82;20900;-88
2022/05/18 03:29:44;;;;;;;;;;;;;;;5.31;65.83;102637.09;1680267;84;20239;-88
2022/05/18 03:32:12;;;;;;;;;;;;;;;5.51;65.75;102636.02;1672129;84;20209;-88
2022/05/18 03:34:39;;;;;;;;;;;;;;;5.70;65.56;102637.91;1696036;82;20217;-87
2022/05/18 03:37:05;;;;;;;;;;;;;;;5.91;65.37;102637.31;1736858;82;21814;-88
2022/05/18 03:39:34;;;;;;;;;;;;;;;6.12;65.17;102633.16;1716418;82;20232;-88
2022/05/18 03:42:00;;;;;;;;;;;;;;;6.29;64.84;102638.31;1717610;82;20464;-89
2022/05/18 03:44:30;;;;;;;;;;;;;;;6.47;64.54;102633.52;1697367;82;20166;-89
2022/05/18 03:47:42;;;;;;;;;;;;;;;;;;;;;
2022/05/18 03:50:06;;;;;;;;;;;;;;;7.33;65.81;102640.44;1696122;82;21878;-89
2022/05/18 03:52:33;;;;;;;;;;;;;;;8.16;63.75;102651.24;1736417;82;20197;-90
2022/05/18 03:55:02;;;;;;;;;;;;;;;8.26;62.92;102651.80;1736825;82;20182;-90
2022/05/18 03:57:27;;;;;;;;;;;;;;;8.30;62.41;102652.12;1737155;82;20415;-89
2022/05/18 03:59:54;;;;;;;;;;;;;;;8.32;61.98;102659.69;1738730;82;21079;-85
2022/05/18 04:02:20;;;;;;;;;;;;;;;8.47;61.78;102658.91;1718026;82;22415;-85
2022/05/18 04:04:47;;;;;;;;;;;;;;;8.46;61.33;102662.33;1737475;82;20197;-84
2022/05/18 04:07:15;;;;;;;;;;;;;;;9.06;62.87;102663.47;1717768;82;20249;-83
2022/05/18 04:09:42;;;;;;;;;;;;;;;11.79;64.40;102650.70;1737878;82;20360;-85
2022/05/18 04:12:09;;;;;;;;;;;;;;;14.78;62.25;102652.97;1737702;82;20178;-86
2022/05/18 04:14:36;;;;;;;;;;;;;;;17.27;59.54;102641.28;1737771;81;22732;-85
2022/05/18 04:17:03;;;;;;;;;;;;;;;18.07;54.20;102638.47;1734864;82;20484;-85
2022/05/18 04:19:31;;;;;;;;;;;;;;;17.18;51.95;102646.34;1718661;82;20233;-85
2022/05/18 04:21:57;;;;;;;;;;;;;;;16.59;50.67;102653.43;1736224;82;20379;-84
2022/05/18 04:24:25;;;;;;;;;;;;;;;15.62;50.24;102656.91;1713133;82;20230;-85
2022/05/18 04:26:53;;;;;;;;;;;;;;;15.07;50.17;102655.80;1736960;82;21785;-86
2022/05/18 04:29:22;;;;;;;;;;;;;;;14.22;49.71;102662.21;1718071;82;20586;-85
2022/05/18 04:31:50;;;;;;;;;;;;;;;13.51;49.91;102668.50;1706369;83;20240;-84
2022/05/18 04:34:31;;;;;;;;;;;;;;;13.15;50.50;102671.28;1677974;83;20233;-86
2022/05/18 04:37:17;;;;;;;;;;;;;;;14.05;52.19;102665.49;1706843;84;20204;-91
2022/05/18 04:43:40;;;;;;;;;;;;;;;18.78;51.39;102667.65;1635631;86;20244;-84
2022/05/18 04:46:02;;;;;;;;;;;;;;;20.09;48.63;102667.52;1621660;86;20837;-84
2022/05/18 04:48:31;;;;;;;;;;;;;;;22.54;47.33;102658.20;1638341;86;20547;-83
2022/05/18 04:50:56;;;;;;;;;;;;;;;24.33;45.65;102665.36;1638959;86;20228;-82
2022/05/18 04:53:25;;;;;;;;;;;;;;;25.76;43.82;102670.98;1644665;86;21756;-83
2022/05/18 04:55:52;;;;;;;;;;;;;;;27.14;41.90;102670.02;1643188;84;21065;-83
2022/05/18 04:58:18;;;;;;;;;;;;;;;28.30;40.36;102668.18;1649203;85;20900;-82
2022/05/18 05:00:44;;;;;;;;;;;;;;;28.87;37.87;102671.16;1640139;85;20437;-85
2022/05/18 05:03:11;;;;;;;;;;;;;;;27.80;35.98;102680.76;1653256;85;20240;-85
2022/05/18 05:05:38;;;;;;;;;;;;;;;26.99;36.44;102683.75;1645021;85;21965;-85
2022/05/18 05:08:05;;;;;;;;;;;;;;;26.76;35.77;102686.71;1646405;86;21066;-85
2022/05/18 05:10:31;;;;;;;;;;;;;;;26.01;34.87;102686.11;1647968;85;20464;-85
2022/05/18 05:12:58;;;;;;;;;;;;;;;24.87;34.72;102683.63;1655836;83;20387;-85
2022/05/18 05:15:24;;;;;;;;;;;;;;;24.58;35.72;102694.48;1711786;83;20242;-84
2022/05/18 05:17:52;;;;;;;;;;;;;;;24.58;34.64;102689.98;1680106;85;20260;-85
2022/05/18 05:20:19;;;;;;;;;;;;;;;23.60;34.08;102688.19;1710746;83;20745;-85
2022/05/18 05:22:45;;;;;;;;;;;;;;;22.37;34.55;102688.08;1714007;83;20942;-85
2022/05/18 05:25:15;;;;;;;;;;;;;;;21.69;35.11;102688.38;1702974;83;21193;-85
2022/05/18 05:27:42;;;;;;;;;;;;;;;22.40;36.34;102681.41;1715895;83;20215;-84
2022/05/18 05:30:10;;;;;;;;;;;;;;;24.76;36.10;102689.51;1701174;83;22852;-85
2022/05/18 05:32:36;;;;;;;;;;;;;;;25.94;35.01;102684.83;1686922;83;20231;-84
2022/05/18 05:35:03;;;;;;;;;;;;;;;26.62;33.69;102681.95;1684568;83;20192;-85
2022/05/18 05:37:30;;;;;;;;;;;;;;;25.42;32.68;102686.52;1698317;83;21194;-84
2022/05/18 05:39:57;;;;;;;;;;;;;;;23.93;32.75;102694.95;1684004;83;20212;-85
2022/05/18 05:42:23;;;;;;;;;;;;;;;22.70;33.10;102698.13;1727709;83;21736;-84
2022/05/18 05:44:50;;;;;;;;;;;;;;;21.65;33.51;102687.00;1702823;82;20258;-84
2022/05/18 05:47:17;;;;;;;;;;;;;;;20.65;33.94;102696.05;1689068;84;20221;-85
2022/05/18 05:49:44;;;;;;;;;;;;;;;19.89;34.69;102701.03;1707865;84;21166;-85
2022/05/18 05:52:11;;;;;;;;;;;;;;;19.12;35.09;102703.09;1663588;84;20203;-84
2022/05/18 05:54:37;;;;;;;;;;;;;;;18.16;35.46;102705.33;1664812;85;23037;-84
2022/05/18 05:57:04;;;;;;;;;;;;;;;17.56;36.05;102718.81;1656658;85;20206;-84
2022/05/18 05:59:31;;;;;;;;;;;;;;;17.17;36.72;102704.84;1659044;85;20213;-84
2022/05/18 06:02:01;;;;;;;;;;;;;;;16.78;36.98;102707.67;1655662;84;20364;-84
2022/05/18 06:04:33;;;;;;;;;;;;;;;16.38;37.48;102713.47;1661214;85;20225;-85
2022/05/18 06:06:59;;;;;;;;;;;;;;;16.03;37.91;102712.79;1713924;83;22660;-84
2022/05/18 06:09:26;;;;;;;;;;;;;;;15.79;38.45;102719.48;1728159;82;21408;-84
2022/05/18 06:11:52;;;;;;;;;;;;;;;15.43;38.57;102713.71;1728083;82;20639;-85
2022/05/18 06:14:19;;;;;;;;;;;;;;;15.02;38.90;102717.08;1713966;82;20412;-84
2022/05/18 06:16:49;;;;;;;;;;;;;;;14.55;39.44;102722.29;1728379;81;20238;-84
2022/05/18 06:19:16;;;;;;;;;;;;;;;14.24;39.98;102722.77;1687523;82;21856;-85
2022/05/18 06:21:43;;;;;;;;;;;;;;;13.96;40.40;102729.55;1707850;84;20325;-85
2022/05/18 06:24:10;;;;;;;;;;;;;;;13.81;40.96;102727.14;1704118;82;20534;-85
2022/05/18 06:26:36;;;;;;;;;;;;;;;13.68;41.26;102728.77;1703435;84;21168;-85
2022/05/18 06:29:05;;;;;;;;;;;;;;;13.60;41.39;102728.44;1703464;84;20228;-84
2022/05/18 06:31:31;;;;;;;;;;;;;;;13.44;41.73;102732.16;1703314;83;21747;-84
2022/05/18 06:33:58;;;;;;;;;;;;;;;13.37;42.16;102738.00;1681665;84;20237;-84
2022/05/18 06:36:25;;;;;;;;;;;;;;;13.32;42.38;102736.88;1702900;82;20240;-84
2022/05/18 06:38:51;;;;;;;;;;;;;;;13.23;42.62;102738.24;1703217;84;20418;-84
2022/05/18 06:41:23;;;;;;;;;;;;;;;13.19;42.97;102740.27;1703440;83;20212;-84
2022/05/18 06:43:56;;;;;;;;;;;;;;;13.11;43.10;102740.73;1707232;82;21771;-84
2022/05/18 06:46:24;;;;;;;;;;;;;;;12.98;43.20;102744.11;1707827;82;20201;-84
2022/05/18 06:48:51;;;;;;;;;;;;;;;12.56;43.27;102745.63;1708605;81;20161;-84
2022/05/18 06:51:21;;;;;;;;;;;;;;;12.31;43.85;102746.13;1705455;83;20316;-84
2022/05/18 06:53:48;;;;;;;;;;;;;;;12.25;44.26;102750.69;1704161;84;20200;-84
2022/05/18 06:56:15;;;;;;;;;;;;;;;12.31;44.51;102756.27;1703023;83;21904;-84
2022/05/18 06:58:41;;;;;;;;;;;;;;;12.40;44.64;102757.16;1694664;84;20222;-85
2022/05/18 07:01:07;;;;;;;;;;;;;;;12.50;44.69;102753.22;1669424;84;20199;-84
2022/05/18 07:03:34;;;;;;;;;;;;;;;12.60;44.89;102761.69;1698576;84;20380;-84
2022/05/18 07:06:01;;;;;;;;;;;;;;;12.57;44.56;102754.91;1703327;84;20235;-85
2022/05/18 07:08:27;;;;;;;;;;;;;;;12.52;44.87;102758.16;1703345;84;21725;-84
2022/05/18 07:10:54;;;;;;;;;;;;;;;12.48;44.89;102751.86;1703337;84;20562;-84
2022/05/18 07:13:21;;;;;;;;;;;;;;;12.46;45.11;102758.77;1703253;83;20236;-85
2022/05/18 07:15:47;;;;;;;;;;;;;;;12.50;45.17;102763.40;1702749;83;20378;-85
2022/05/18 07:18:14;;;;;;;;;;;;;;;12.54;45.31;102763.14;1703345;83;20610;-85
2022/05/18 07:20:42;;;;;;;;;;;;;;;12.55;45.38;102760.55;1703492;83;22735;-85
2022/05/18 07:23:09;;;;;;;;;;;;;;;12.60;45.30;102762.11;1698030;83;20212;-85
2022/05/18 07:25:35;;;;;;;;;;;;;;;12.53;45.45;102759.56;1703947;84;20528;-85
2022/05/18 07:28:02;;;;;;;;;;;;;;;12.47;45.27;102755.31;1704026;83;21084;-84
2022/05/18 07:30:28;;;;;;;;;;;;;;;12.40;45.37;102758.47;1704039;84;20387;-85
2022/05/18 07:32:55;;;;;;;;;;;;;;;12.35;45.75;102762.61;1703822;84;21815;-85
2022/05/18 07:35:23;;;;;;;;;;;;;;;12.41;46.05;102757.66;1703735;82;20771;-85
2022/05/18 07:37:50;;;;;;;;;;;;;;;12.45;45.82;102764.90;1703500;84;20209;-85
2022/05/18 07:40:16;;;;;;;;;;;;;;;12.42;45.97;102761.67;1703704;84;21251;-85
2022/05/18 07:42:43;;;;;;;;;;;;;;;12.41;45.86;102762.52;1703589;83;20565;-84
2022/05/18 07:45:10;;;;;;;;;;;;;;;12.33;45.76;102763.88;1703260;84;21687;-85
2022/05/18 07:47:36;;;;;;;;;;;;;;;12.17;45.92;102760.87;1703279;83;20604;-85
2022/05/18 07:50:04;;;;;;;;;;;;;;;12.04;46.04;102755.80;1703194;83;20228;-85
2022/05/18 07:52:30;;;;;;;;;;;;;;;11.97;46.30;102753.66;1703461;83;20558;-84
2022/05/18 07:54:57;;;;;;;;;;;;;;;12.01;46.62;102756.55;1703357;84;20208;-84
2022/05/18 07:57:23;;;;;;;;;;;;;;;12.11;46.78;102759.25;1703390;83;21861;-85
2022/05/18 07:59:56;;;;;;;;;;;;;;;12.18;46.60;102753.45;1702901;84;20200;-85
2022/05/18 08:02:23;;;;;;;;;;;;;;;12.19;46.66;102749.07;1703255;84;20244;-85
2022/05/18 08:04:49;;;;;;;;;;;;;;;12.24;46.79;102748.47;1703168;84;20562;-85
2022/05/18 08:07:15;;;;;;;;;;;;;;;12.32;46.64;102743.57;1695617;83;20774;-85
2022/05/18 08:15:12;;;;;;;;;;;;;;;12.33;46.60;102744.47;1694770;84;20239;-85
2022/05/18 08:17:44;;;;;;;;;;;;;;;12.39;46.52;102744.80;1684861;84;20483;-85
2022/05/18 08:20:13;;;;;;;;;;;;;;;12.39;46.58;102746.12;1689671;84;20643;-85
2022/05/18 08:22:43;;;;;;;;;;;;;;;12.41;46.64;102747.09;1683333;84;21748;-86
2022/05/18 08:25:13;;;;;;;;;;;;;;;12.48;46.57;102746.96;1690624;83;20191;-86
2022/05/18 08:27:44;;;;;;;;;;;;;;;12.53;46.53;102749.42;1675265;84;21036;-86
2022/05/18 08:30:12;;;;;;;;;;;;;;;12.54;46.44;102755.22;1669845;84;20351;-86
2022/05/18 08:32:41;;;;;;;;;;;;;;;12.53;46.44;102746.78;1694825;84;20251;-86
2022/05/18 08:35:08;;;;;;;;;;;;;;;12.55;46.63;102747.76;1703704;84;22582;-86
2022/05/18 08:37:39;;;;;;;;;;;;;;;12.52;46.31;102740.99;1703330;82;20218;-85
2022/05/18 08:40:07;;;;;;;;;;;;;;;12.49;46.23;102742.19;1671146;84;20203;-85
2022/05/18 08:42:34;;;;;;;;;;;;;;;12.40;46.28;102734.70;1670615;84;21105;-85
2022/05/18 08:45:01;;;;;;;;;;;;;;;12.38;46.41;102733.73;1683017;83;20210;-86
2022/05/18 08:47:36;;;;;;;;;;;;;;;12.37;46.24;102735.86;1700934;83;21771;-85
2022/05/18 08:50:12;;;;;;;;;;;;;;;12.34;46.35;102735.73;1702587;83;20224;-85
2022/05/18 08:53:02;;;;;;;;;;;;;;;12.33;46.46;102729.95;1703323;83;20229;-85
2022/05/18 08:55:58;;;;;;;;;;;;;;;12.36;46.63;102727.47;1684038;84;20379;-85
2022/05/18 08:58:32;;;;;;;;;;;;;;;12.47;46.70;102728.00;1703638;83;20228;-85
2022/05/18 09:01:06;;;;;;;;;;;;;;;12.56;46.78;102725.38;1703262;84;21756;-85
2022/05/18 09:03:36;;;;;;;;;;;;;;;12.61;46.71;102715.95;1679397;83;20231;-85
2022/05/18 09:06:22;;;;;;;;;;;;;;;12.62;46.54;102715.11;1688721;84;20207;-84
2022/05/18 09:11:51;;;;;;;;;;;;;;;12.64;46.35;102713.44;1702010;84;20216;-84
2022/05/18 09:14:20;;;;;;;;;;;;;;;12.71;46.72;102715.08;1685783;84;21914;-84
2022/05/18 09:16:59;;;;;;;;;;;;;;;12.77;46.46;102710.08;1683728;83;20198;-83
2022/05/18 09:19:35;;;;;;;;;;;;;;;12.78;46.27;102710.16;1675249;84;20203;-85
2022/05/18 09:22:28;;;;;;;;;;;;;;;12.77;46.24;102703.47;1696518;84;20634;-85
2022/05/18 09:25:07;;;;;;;;;;;;;;;12.78;46.30;102698.66;1684895;84;20217;-84
2022/05/18 09:27:46;;;;;;;;;;;;;;;12.87;46.04;102700.41;1682940;84;21745;-85
2022/05/18 09:30:22;;;;;;;;;;;;;;;12.91;46.26;102697.50;1703158;84;20201;-85
2022/05/18 09:33:06;;;;;;;;;;;;;;;13.07;46.60;102697.80;1700426;84;20185;-85
2022/05/18 09:35:47;;;;;;;;;;;;;;;13.18;46.35;102690.84;1690546;84;21195;-85
2022/05/18 09:38:20;;;;;;;;;;;;;;;13.25;46.22;102689.39;1703743;82;20204;-85
2022/05/18 09:40:47;;;;;;;;;;;;;;;13.28;46.29;102685.97;1703809;83;21758;-85
2022/05/18 09:43:34;;;;;;;;;;;;;;;13.39;46.39;102686.96;1680046;83;20184;-85
2022/05/18 09:46:01;;;;;;;;;;;;;;;13.51;46.08;102689.23;1703691;84;20235;-84
2022/05/18 09:48:37;;;;;;;;;;;;;;;13.53;45.68;102690.63;1672041;83;20366;-84
2022/05/18 09:51:04;;;;;;;;;;;;;;;13.56;45.67;102693.42;1690638;84;20224;-85
2022/05/18 09:53:30;;;;;;;;;;;;;;;13.63;45.30;102689.28;1703194;83;21740;-85
2022/05/18 09:55:57;;;;;;;;;;;;;;;13.63;45.26;102693.25;1702965;83;20204;-85
2022/05/18 09:58:38;;;;;;;;;;;;;;;13.64;45.34;102686.71;1698739;83;20357;-85
2022/05/18 10:09:44;;;;;;;;;;;;;;;13.83;45.63;102679.56;1688416;83;20232;-85
2022/05/18 10:12:13;;;;;;;;;;;;;;;13.97;45.54;102678.41;1694970;84;20199;-84
2022/05/18 10:14:40;;;;;;;;;;;;;;;14.04;45.21;102672.94;1689907;84;20418;-84
2022/05/18 10:17:12;;;;;;;;;;;;;;;14.11;45.14;102671.92;1703378;83;20273;-84
2022/05/18 10:19:55;;;;;;;;;;;;;;;14.21;45.07;102669.27;1706268;83;21743;-84
2022/05/18 10:22:24;;;;;;;;;;;;;;;14.32;44.61;102667.02;1681784;84;20216;-84
2022/05/18 10:24:54;;;;;;;;;;;;;;;14.38;44.18;102665.54;1685432;84;20181;-85
2022/05/18 10:27:26;;;;;;;;;;;;;;;14.46;43.78;102667.59;1704855;84;20428;-85
2022/05/18 10:30:08;;;;;;;;;;;;;;;14.49;43.34;102665.97;1704854;84;20212;-85
2022/05/18 10:32:40;;;;;;;;;;;;;;;14.55;43.01;102662.23;1688378;84;21821;-84
2022/05/18 10:35:07;;;;;;;;;;;;;;;14.59;42.69;102655.34;1684488;84;20198;-85
2022/05/18 10:37:36;;;;;;;;;;;;;;;14.58;42.22;102657.50;1724973;82;20179;-85
2022/05/18 10:40:11;;;;;;;;;;;;;;;14.59;42.33;102655.34;1744148;82;20495;-85
2022/05/18 10:42:50;;;;;;;;;;;;;;;14.70;42.22;102658.41;1744488;81;20162;-85
2022/05/18 10:45:29;;;;;;;;;;;;;;;14.78;42.32;102655.19;1727913;82;21726;-85
2022/05/18 10:48:04;;;;;;;;;;;;;;;14.94;42.38;102656.69;1748773;81;20155;-85
2022/05/18 10:50:34;;;;;;;;;;;;;;;15.04;41.66;102649.08;1747667;81;20151;-85
2022/05/18 10:53:04;;;;;;;;;;;;;;;15.02;41.28;102644.15;1748528;80;20457;-85
2022/05/18 10:55:30;;;;;;;;;;;;;;;14.95;40.92;102645.66;1732158;82;20500;-85
2022/05/18 10:58:00;;;;;;;;;;;;;;;14.88;40.88;102640.96;1744239;82;21786;-85
2022/05/18 11:00:31;;;;;;;;;;;;;;;14.81;40.88;102634.55;1707053;83;20208;-84
2022/05/18 11:03:10;;;;;;;;;;;;;;;14.78;40.97;102631.77;1726354;82;21034;-84
2022/05/18 11:05:48;;;;;;;;;;;;;;;14.83;41.40;102631.92;1742231;82;20469;-84
2022/05/18 11:08:17;;;;;;;;;;;;;;;14.92;41.37;102625.64;1742557;82;20206;-85
2022/05/18 11:10:50;;;;;;;;;;;;;;;15.03;41.77;102620.73;1742182;82;21751;-85
2022/05/18 11:13:25;;;;;;;;;;;;;;;15.16;41.19;102617.28;1742254;81;20190;-85
2022/05/18 11:16:08;;;;;;;;;;;;;;;15.24;41.22;102611.32;1709589;82;20213;-85
2022/05/18 11:18:59;;;;;;;;;;;;;;;15.34;41.26;102611.70;1741812;82;20380;-85
2022/05/18 11:21:49;;;;;;;;;;;;;;;15.43;40.95;102600.53;1742225;81;20698;-85
2022/05/18 11:24:19;;;;;;;;;;;;;;;15.43;40.75;102595.63;1736056;82;21615;-84
2022/05/18 11:26:55;;;;;;;;;;;;;;;15.39;40.71;102595.97;1741789;82;20197;-85
2022/05/18 11:29:46;;;;;;;;;;;;;;;15.39;40.64;102585.75;1742125;82;20340;-85
2022/05/18 11:32:38;;;;;;;;;;;;;;;15.40;40.64;102589.80;1742220;82;20376;-85
2022/05/18 11:35:08;;;;;;;;;;;;;;;15.40;40.57;102588.47;1718012;82;20237;-84
2022/05/18 11:38:01;;;;;;;;;;;;;;;15.44;41.08;102583.73;1728516;82;21754;-84
2022/05/18 11:40:38;;;;;;;;;;;;;;;15.53;40.95;102584.05;1702391;83;20235;-85
2022/05/18 11:43:28;;;;;;;;;;;;;;;15.59;40.70;102582.03;1718925;83;20501;-84
2022/05/18 11:46:14;;;;;;;;;;;;;;;15.57;40.84;102568.24;1719058;83;20402;-85
2022/05/18 11:49:11;;;;;;;;;;;;;;;15.65;41.04;102562.75;1699678;83;20219;-85
2022/05/18 11:51:56;;;;;;;;;;;;;;;15.69;40.76;102561.99;1703062;83;21777;-84
2022/05/18 11:55:01;;;;;;;;;;;;;;;15.67;40.77;102556.66;1720062;82;20219;-84
2022/05/18 11:57:53;;;;;;;;;;;;;;;15.73;41.15;102559.95;1693047;83;20237;-85
2022/05/18 12:00:54;;;;;;;;;;;;;;;15.91;41.05;102549.92;1692264;83;20464;-85
2022/05/18 12:03:22;;;;;;;;;;;;;;;15.99;40.73;102544.88;1689740;82;20209;-85
2022/05/18 12:06:09;;;;;;;;;;;;;;;15.97;40.55;102546.99;1699891;83;21755;-85
2022/05/18 12:08:45;;;;;;;;;;;;;;;16.02;40.83;102548.05;1714801;83;20211;-85
2022/05/18 12:11:29;;;;;;;;;;;;;;;16.10;40.77;102550.50;1666305;83;20217;-85
2022/05/18 12:14:16;;;;;;;;;;;;;;;16.13;40.36;102543.53;1691802;83;21563;-86
2022/05/18 12:17:06;;;;;;;;;;;;;;;16.09;40.23;102538.09;1699300;83;20241;-85
2022/05/18 12:19:52;;;;;;;;;;;;;;;16.07;40.14;102539.80;1701577;83;21761;-85
2022/05/18 12:22:25;;;;;;;;;;;;;;;16.12;40.42;102536.84;1718620;83;20210;-86
2022/05/18 12:24:51;;;;;;;;;;;;;;;16.19;40.33;102536.61;1688865;83;20210;-85
2022/05/18 12:27:18;;;;;;;;;;;;;;;16.26;40.27;102533.30;1707823;83;20406;-85
2022/05/18 12:29:45;;;;;;;;;;;;;;;16.33;40.19;102529.53;1718677;83;20218;-85
2022/05/18 12:32:11;;;;;;;;;;;;;;;16.42;40.18;102521.34;1718802;83;23040;-85
2022/05/18 12:34:41;;;;;;;;;;;;;;;16.50;39.81;102518.50;1718548;83;20569;-85
2022/05/18 12:37:17;;;;;;;;;;;;;;;16.55;39.56;102515.52;1705271;83;20202;-86
2022/05/18 12:39:47;;;;;;;;;;;;;;;16.59;39.62;102506.80;1714211;83;21701;-86
2022/05/18 12:42:16;;;;;;;;;;;;;;;16.66;39.48;102508.75;1718888;83;20224;-85
2022/05/18 12:44:45;;;;;;;;;;;;;;;16.75;39.50;102506.79;1717687;82;21624;-85
2022/05/18 12:47:27;;;;;;;;;;;;;;;16.84;39.22;102500.87;1706918;83;20278;-85
2022/05/18 12:50:02;;;;;;;;;;;;;;;16.82;39.01;102500.82;1703557;83;21150;-85
2022/05/18 12:52:41;;;;;;;;;;;;;;;16.88;39.04;102500.98;1719375;83;20375;-84
2022/05/18 12:55:31;;;;;;;;;;;;;;;16.99;38.92;102501.71;1719550;83;20203;-84
2022/05/18 12:58:13;;;;;;;;;;;;;;;17.04;38.62;102496.06;1700799;83;22479;-85
2022/05/18 13:00:52;;;;;;;;;;;;;;;17.10;38.70;102490.48;1698865;83;20874;-84
2022/05/18 13:03:22;;;;;;;;;;;;;;;17.24;38.58;102488.60;1714845;83;20252;-85
2022/05/18 13:05:54;;;;;;;;;;;;;;;17.35;38.54;102480.89;1719255;83;20379;-84
2022/05/18 13:08:27;;;;;;;;;;;;;;;17.42;38.27;102491.72;1719268;83;20223;-84
2022/05/18 13:11:15;;;;;;;;;;;;;;;17.48;38.02;102480.33;1718806;83;21821;-85
2022/05/18 13:14:04;;;;;;;;;;;;;;;17.50;38.15;102478.59;1718998;83;20223;-84
2022/05/18 13:16:40;;;;;;;;;;;;;;;17.61;37.76;102478.86;1718606;83;20227;-83
2022/05/18 13:19:18;;;;;;;;;;;;;;;17.65;37.82;102480.73;1718236;83;21391;-85
2022/05/18 13:22:09;;;;;;;;;;;;;;;17.72;37.86;102472.42;1698416;83;20187;-86
2022/05/18 13:24:40;;;;;;;;;;;;;;;17.73;37.71;102466.25;1709577;83;21772;-86
2022/05/18 13:27:12;;;;;;;;;;;;;;;17.72;37.30;102455.11;1705807;83;20223;-85